Pittsburgh, Pennsylvania
Traffic Map
Current Weather Conditions
Pittsburgh, Pennsylvania
Overcast
Overcast

Feels Like: 2°
Wind Chill: Ceiling: 8000
Heat Index: Visibility: 10mi
Dew Point: -10° Wind: 6mph
Humidity: 36% Direction: 100° (E)
Pressure: 29.95in Gusts: 0mph
Raw Report DataKAGC 250753Z AUTO 10005KT 10SM OVC080 04/M10 A2995 RMK AO2 SLP152 T00391100 TSNO
Traffic Incident Summary
Active as of:
Severity:
Category:
InformationThere was an issue retrieving the traffic information for this location. Please try a different location or try again shortly.
Advertisements
Track Severe Weather on mobile